Time;durP1;ratioP1;P1;durP2;ratioP2;P2;SDS_P1;SDS_P2;PMS_P1;PMS_P2;Temp;Humidity;BMP_temperature;BMP_pressure;BME280_temperature;BME280_humidity;BME280_pressure;Samples;Min_cycle;Max_cycle;Signal;HPM_P1;HPM_P2
2023/08/03 00:00:19;;;;;;;11.73;7.80;;;;;;;25.16;52.64;94642.91;4947700;28;20059;-87
2023/08/03 00:02:45;;;;;;;15.80;9.13;;;;;;;25.56;52.32;94710.56;4979820;28;20055;-86
2023/08/03 00:05:11;;;;;;;12.85;9.02;;;;;;;25.15;53.03;94682.03;4954654;28;20039;-87
2023/08/03 00:07:36;;;;;;;18.33;8.57;;;;;;;25.44;52.61;94721.75;4997010;28;20059;-87
2023/08/03 00:10:02;;;;;;;13.38;8.48;;;;;;;25.71;52.94;94757.63;4969635;28;20044;-87
2023/08/03 00:12:28;;;;;;;20.40;9.10;;;;;;;25.12;53.09;94683.56;4944825;28;20054;-87
2023/08/03 00:14:53;;;;;;;14.02;9.82;;;;;;;24.86;53.22;94634.94;4979048;28;20043;-86
2023/08/03 00:17:18;;;;;;;16.92;10.52;;;;;;;24.34;52.81;94543.91;4973663;28;20107;-87
2023/08/03 00:19:44;;;;;;;10.10;8.57;;;;;;;25.87;52.88;94806.22;4935266;28;20032;-87
2023/08/03 00:22:09;;;;;;;13.48;8.98;;;;;;;25.44;53.32;94746.19;4982037;28;20112;-87
2023/08/03 00:24:36;;;;;;;14.32;8.85;;;;;;;25.30;53.15;94725.16;4955010;28;20043;-87
2023/08/03 00:27:02;;;;;;;15.85;9.43;;;;;;;25.71;53.70;94801.84;4955521;28;20133;-87
2023/08/03 00:29:27;;;;;;;13.85;9.18;;;;;;;25.67;53.79;94792.13;5009914;28;20027;-87
2023/08/03 00:31:53;;;;;;;14.35;8.75;;;;;;;24.93;54.52;94719.09;5025647;28;20135;-87
2023/08/03 00:34:18;;;;;;;12.40;9.35;;;;;;;24.61;55.53;94729.63;4971764;28;20029;-87
2023/08/03 00:36:43;;;;;;;13.32;9.27;;;;;;;24.43;56.00;94710.47;4964142;28;20039;-86
2023/08/03 00:39:09;;;;;;;14.30;9.70;;;;;;;24.45;56.21;94705.47;4941719;28;20031;-86
2023/08/03 00:41:34;;;;;;;16.30;9.77;;;;;;;24.74;56.42;94773.50;4953864;28;20038;-86
2023/08/03 00:44:00;;;;;;;16.20;10.50;;;;;;;24.79;57.15;94800.28;4984128;28;20039;-87
2023/08/03 00:46:26;;;;;;;17.95;9.32;;;;;;;24.79;56.83;94782.09;4979145;28;20051;-87
2023/08/03 00:48:51;;;;;;;13.23;9.55;;;;;;;23.76;57.16;94652.84;4934673;28;20474;-87
2023/08/03 00:51:17;;;;;;;12.57;9.07;;;;;;;24.28;56.51;94706.06;4970335;28;20061;-87
2023/08/03 00:53:45;;;;;;;14.02;9.02;;;;;;;24.35;56.09;94695.28;4948862;28;20075;-87
2023/08/03 00:56:12;;;;;;;14.02;9.80;;;;;;;24.52;56.55;94750.81;4999245;28;20043;-86
2023/08/03 00:58:39;;;;;;;19.17;9.82;;;;;;;24.29;56.51;94696.78;4967651;28;20038;-86
2023/08/03 01:01:05;;;;;;;15.90;9.48;;;;;;;24.49;56.26;94714.38;4976174;28;20497;-86
2023/08/03 01:03:31;;;;;;;14.52;9.63;;;;;;;24.56;55.86;94713.69;4937099;28;20031;-86
2023/08/03 01:05:56;;;;;;;11.63;9.80;;;;;;;24.65;56.48;94760.25;4936731;28;20050;-86
2023/08/03 01:08:23;;;;;;;15.05;9.63;;;;;;;23.39;56.92;94583.19;4955094;28;20386;-86
2023/08/03 01:10:49;;;;;;;17.60;10.00;;;;;;;24.47;57.21;94753.88;4940804;28;20540;-87
2023/08/03 01:13:15;;;;;;;17.55;9.90;;;;;;;24.33;57.02;94719.28;4941206;28;20036;-86
2023/08/03 01:15:41;;;;;;;15.60;9.65;;;;;;;24.99;56.38;94796.25;4995339;28;20081;-87
2023/08/03 01:18:06;;;;;;;11.43;9.73;;;;;;;24.92;56.57;94802.38;4951152;28;20038;-86
2023/08/03 01:20:35;;;;;;;19.88;9.80;;;;;;;24.06;57.06;94694.19;4963888;28;20035;-87
2023/08/03 01:23:04;;;;;;;13.65;9.93;;;;;;;24.50;57.59;94781.00;4939899;28;20081;-87
2023/08/03 01:25:31;;;;;;;12.65;10.00;;;;;;;24.35;57.45;94754.91;4941706;29;20036;-87
2023/08/03 01:27:56;;;;;;;12.00;9.27;;;;;;;23.66;58.02;94664.31;4945025;28;20028;-87
2023/08/03 01:30:22;;;;;;;12.13;9.93;;;;;;;24.38;58.61;94797.53;4963340;28;20063;-86
2023/08/03 01:32:48;;;;;;;11.63;9.50;;;;;;;23.70;58.79;94705.75;4950174;28;20039;-86
2023/08/03 01:35:13;;;;;;;13.02;8.98;;;;;;;23.74;58.30;94688.41;4972212;28;20035;-87
2023/08/03 01:37:39;;;;;;;11.82;9.80;;;;;;;24.08;58.34;94739.88;4974984;28;20090;-87
2023/08/03 01:40:05;;;;;;;13.23;10.05;;;;;;;23.81;58.63;94720.19;4971221;28;20114;-86
2023/08/03 01:42:31;;;;;;;17.02;9.65;;;;;;;23.56;58.42;94670.41;4989959;28;20027;-87
2023/08/03 01:44:56;;;;;;;17.85;10.00;;;;;;;24.41;58.17;94790.59;5032068;28;20448;-87
2023/08/03 01:47:21;;;;;;;13.43;9.95;;;;;;;23.47;58.55;94665.22;4987317;28;20066;-87
2023/08/03 01:49:47;;;;;;;14.02;9.57;;;;;;;23.74;58.37;94722.81;4940004;28;20042;-87
2023/08/03 01:52:12;;;;;;;14.80;10.70;;;;;;;23.72;58.50;94717.00;4967590;28;20325;-87
2023/08/03 01:54:38;;;;;;;11.90;9.57;;;;;;;24.40;58.31;94816.13;4961489;28;20062;-86
2023/08/03 01:57:04;;;;;;;14.05;10.65;;;;;;;24.39;58.31;94820.00;4954947;28;20458;-87
2023/08/03 01:59:29;;;;;;;12.95;10.10;;;;;;;24.41;58.20;94813.03;4954978;28;20027;-87
2023/08/03 02:01:54;;;;;;;13.57;10.02;;;;;;;23.94;58.16;94743.19;4936801;28;20042;-87
2023/08/03 02:04:20;;;;;;;13.77;9.40;;;;;;;23.88;58.17;94731.09;4996332;28;20036;-87
2023/08/03 02:06:48;;;;;;;12.48;9.73;;;;;;;23.67;58.23;94725.44;5002752;28;20035;-86
2023/08/03 02:09:14;;;;;;;10.13;9.00;;;;;;;23.42;57.97;94669.00;5013649;28;20033;-86
2023/08/03 02:11:39;;;;;;;17.60;9.82;;;;;;;24.20;58.38;94818.22;5045049;28;20028;-87
2023/08/03 02:14:05;;;;;;;12.52;9.25;;;;;;;23.68;58.04;94729.69;4979691;28;20463;-87
2023/08/03 02:16:31;;;;;;;12.68;10.10;;;;;;;24.28;57.86;94803.59;5021825;28;20047;-86
2023/08/03 02:18:57;;;;;;;15.32;9.43;;;;;;;24.02;57.58;94760.31;4955934;28;20038;-86
2023/08/03 02:21:22;;;;;;;13.57;9.45;;;;;;;24.17;57.76;94794.56;5030750;28;20033;-86
2023/08/03 02:23:48;;;;;;;17.00;9.75;;;;;;;24.00;57.51;94746.34;4952009;29;20035;-86
2023/08/03 02:26:14;;;;;;;17.55;9.77;;;;;;;24.36;57.04;94794.41;5034471;28;20388;-86
2023/08/03 02:28:40;;;;;;;12.77;9.88;;;;;;;24.17;57.86;94783.72;5034568;28;20102;-86
2023/08/03 02:31:05;;;;;;;16.85;9.73;;;;;;;24.36;57.47;94813.38;4941153;28;20417;-86
2023/08/03 02:33:30;;;;;;;14.40;10.27;;;;;;;23.97;57.35;94744.38;4952172;28;20122;-86
2023/08/03 02:35:56;;;;;;;15.57;10.57;;;;;;;23.83;57.78;94737.63;4951823;28;20034;-86
2023/08/03 02:38:21;;;;;;;14.13;9.90;;;;;;;23.74;58.68;94774.25;4956290;28;20054;-86
2023/08/03 02:40:47;;;;;;;12.73;9.98;;;;;;;23.80;58.79;94770.84;4954884;28;20119;-86
2023/08/03 02:43:12;;;;;;;14.20;9.85;;;;;;;24.32;58.10;94811.78;4948877;28;20047;-86
2023/08/03 02:45:38;;;;;;;13.50;10.05;;;;;;;23.85;58.67;94777.91;4940511;28;20046;-86
2023/08/03 02:48:03;;;;;;;16.55;10.25;;;;;;;24.02;58.79;94809.84;4946760;29;20049;-86
2023/08/03 02:50:29;;;;;;;13.95;9.80;;;;;;;23.49;58.39;94708.19;5030864;28;20033;-86
2023/08/03 02:52:54;;;;;;;13.65;9.68;;;;;;;23.83;58.69;94769.34;4969855;28;20063;-86
2023/08/03 02:55:20;;;;;;;16.08;10.27;;;;;;;23.62;58.55;94731.97;4946549;28;20051;-86
2023/08/03 02:57:45;;;;;;;11.88;10.07;;;;;;;23.61;58.57;94735.81;5040346;28;20501;-86
2023/08/03 03:00:11;;;;;;;12.40;9.95;;;;;;;22.93;58.54;94622.38;4957203;28;20078;-86
2023/08/03 03:02:37;;;;;;;14.10;10.27;;;;;;;23.55;58.17;94709.44;5028142;28;20140;-86
2023/08/03 03:05:03;;;;;;;14.73;9.90;;;;;;;23.41;57.81;94691.84;4948195;28;20034;-86
2023/08/03 03:07:33;;;;;;;19.42;10.52;;;;;;;23.77;57.53;94747.22;5021556;28;20126;-86
2023/08/03 03:09:58;;;;;;;14.40;10.25;;;;;;;23.96;57.59;94791.56;5028251;28;20640;-86
2023/08/03 03:12:24;;;;;;;14.65;10.23;;;;;;;23.77;57.46;94754.56;4961820;28;20055;-87
2023/08/03 03:14:49;;;;;;;14.23;10.02;;;;;;;23.85;57.27;94770.56;5015268;28;20035;-88
2023/08/03 03:17:15;;;;;;;13.45;10.32;;;;;;;23.64;57.28;94734.31;4936198;28;20090;-87
2023/08/03 03:19:40;;;;;;;13.35;10.07;;;;;;;23.54;56.96;94708.66;4944676;28;20034;-88
2023/08/03 03:22:06;;;;;;;13.45;10.23;;;;;;;23.96;56.89;94802.38;4950169;28;20042;-88
2023/08/03 03:24:33;;;;;;;17.85;9.95;;;;;;;22.66;56.77;94600.69;4981391;28;20124;-88
2023/08/03 03:26:58;;;;;;;13.18;10.38;;;;;;;23.69;56.90;94751.00;4950210;28;20035;-88
2023/08/03 03:29:24;;;;;;;14.07;10.57;;;;;;;23.87;56.72;94772.13;5004354;28;20041;-86
2023/08/03 03:31:49;;;;;;;16.60;10.80;;;;;;;23.75;56.43;94746.81;4980449;28;20483;-86
2023/08/03 03:34:15;;;;;;;17.15;10.48;;;;;;;24.01;57.21;94804.78;4976181;28;20038;-86
2023/08/03 03:36:40;;;;;;;14.10;10.25;;;;;;;24.30;56.74;94843.88;5021776;28;20040;-86
2023/08/03 03:39:06;;;;;;;14.50;10.57;;;;;;;24.31;56.66;94848.16;4954540;28;20079;-86
2023/08/03 03:41:31;;;;;;;14.27;10.35;;;;;;;24.38;56.45;94846.31;4961978;28;20126;-87
2023/08/03 03:43:56;;;;;;;12.65;10.88;;;;;;;23.98;57.19;94819.84;4953137;28;20509;-86
2023/08/03 03:46:22;;;;;;;20.58;10.68;;;;;;;23.68;57.38;94776.50;5057707;28;20037;-86
2023/08/03 03:48:47;;;;;;;15.50;11.05;;;;;;;23.63;57.55;94757.09;5035418;28;20027;-87
2023/08/03 03:51:14;;;;;;;14.77;10.77;;;;;;;24.17;57.46;94851.44;4968164;28;20033;-87
2023/08/03 03:53:39;;;;;;;14.75;10.25;;;;;;;24.01;58.00;94845.44;5020026;28;20593;-87
2023/08/03 03:56:05;;;;;;;17.70;10.15;;;;;;;23.12;57.75;94725.00;4970385;28;20052;-88
2023/08/03 03:58:30;;;;;;;15.60;10.43;;;;;;;23.97;57.40;94852.72;5047313;28;20044;-87
2023/08/03 04:00:55;;;;;;;15.50;10.73;;;;;;;23.22;57.11;94746.03;5050521;28;20033;-87
2023/08/03 04:03:23;;;;;;;12.65;10.65;;;;;;;23.41;57.58;94783.06;5006611;28;20134;-87
2023/08/03 04:05:49;;;;;;;15.52;10.60;;;;;;;23.39;57.08;94764.47;5000837;28;20104;-87
2023/08/03 04:08:14;;;;;;;12.13;10.20;;;;;;;23.73;57.12;94794.34;4991819;28;20058;-87
2023/08/03 04:10:40;;;;;;;12.68;10.32;;;;;;;23.75;57.48;94805.59;4951090;28;20031;-87
2023/08/03 04:13:05;;;;;;;15.77;10.70;;;;;;;23.39;57.57;94748.22;5018765;28;20039;-87
2023/08/03 04:15:31;;;;;;;17.92;11.43;;;;;;;23.91;57.43;94818.97;4965468;28;20389;-87
2023/08/03 04:17:56;;;;;;;17.17;10.13;;;;;;;24.08;56.92;94827.34;5030219;28;20028;-87
2023/08/03 04:20:22;;;;;;;16.67;10.68;;;;;;;23.69;57.06;94775.38;4982471;28;20053;-87
2023/08/03 04:22:47;;;;;;;14.63;10.50;;;;;;;24.04;57.11;94834.63;5027962;28;20057;-87
2023/08/03 04:25:13;;;;;;;15.75;10.68;;;;;;;23.69;57.55;94804.34;5026626;28;20459;-87
2023/08/03 04:27:38;;;;;;;14.88;10.85;;;;;;;23.89;57.65;94818.53;4950740;28;20024;-87
2023/08/03 04:30:04;;;;;;;19.00;11.32;;;;;;;23.75;57.70;94792.06;5020085;28;20047;-87
2023/08/03 04:32:30;;;;;;;13.45;11.05;;;;;;;23.80;57.31;94797.94;5004019;28;20029;-87
2023/08/03 04:34:55;;;;;;;13.27;10.80;;;;;;;23.59;57.40;94769.78;5009190;28;20042;-87
2023/08/03 04:37:21;;;;;;;15.52;12.07;;;;;;;23.64;57.86;94788.44;4995162;28;20037;-88
2023/08/03 04:39:46;;;;;;;18.67;11.55;;;;;;;23.71;57.88;94794.72;5054718;28;20040;-87
2023/08/03 04:42:12;;;;;;;15.20;11.70;;;;;;;23.74;57.58;94795.91;4993082;28;20035;-87
2023/08/03 04:44:37;;;;;;;15.52;12.82;;;;;;;23.82;57.67;94792.16;5029500;28;20032;-87
2023/08/03 04:47:03;;;;;;;16.02;12.05;;;;;;;24.24;57.50;94862.41;4980279;28;20035;-87
2023/08/03 04:49:28;;;;;;;17.10;12.57;;;;;;;24.27;57.81;94869.78;4955425;28;20098;-87
2023/08/03 04:51:54;;;;;;;17.83;12.63;;;;;;;23.90;57.95;94828.22;4973268;28;20039;-87
2023/08/03 04:54:20;;;;;;;17.58;12.07;;;;;;;24.13;57.90;94862.22;4954069;28;20035;-87
2023/08/03 04:56:46;;;;;;;19.55;12.95;;;;;;;23.91;57.61;94817.03;5057822;28;20134;-88
2023/08/03 04:59:11;;;;;;;18.55;11.77;;;;;;;24.02;57.32;94812.56;5046775;28;20033;-87
2023/08/03 05:01:37;;;;;;;15.18;11.85;;;;;;;24.19;57.10;94822.03;5046202;28;20025;-86
2023/08/03 05:04:02;;;;;;;20.30;12.10;;;;;;;23.89;56.84;94783.34;5046590;28;20483;-87
2023/08/03 05:06:28;;;;;;;17.35;12.60;;;;;;;24.01;56.66;94800.16;4973867;28;20040;-87
2023/08/03 05:08:53;;;;;;;18.60;12.18;;;;;;;22.75;56.60;94619.41;4963673;28;20050;-87
2023/08/03 05:11:19;;;;;;;17.80;13.00;;;;;;;24.05;55.94;94790.13;4944679;28;20039;-87
2023/08/03 05:13:44;;;;;;;18.88;12.75;;;;;;;24.37;55.73;94822.28;4990460;28;20033;-87
2023/08/03 05:16:10;;;;;;;16.55;12.32;;;;;;;23.96;55.39;94754.41;4989483;28;20035;-87
2023/08/03 05:18:35;;;;;;;18.38;12.23;;;;;;;23.96;55.28;94757.13;4948215;28;20494;-87
2023/08/03 05:21:01;;;;;;;16.25;11.73;;;;;;;24.67;55.27;94841.22;4939135;29;20391;-87
2023/08/03 05:23:26;;;;;;;21.17;11.88;;;;;;;24.99;55.05;94889.25;4950609;28;20490;-88
2023/08/03 05:25:56;;;;;;;21.88;13.82;;;;;;;24.65;55.06;94829.94;4959884;28;20046;-89
2023/08/03 05:28:22;;;;;;;19.80;12.70;;;;;;;25.12;54.82;94895.19;4958344;28;20027;-88
2023/08/03 05:30:48;;;;;;;21.17;11.57;;;;;;;24.79;54.72;94854.53;4955708;28;20062;-87
2023/08/03 05:33:14;;;;;;;24.75;13.23;;;;;;;24.65;54.76;94822.59;4956905;29;20039;-87
2023/08/03 05:35:40;;;;;;;18.00;12.07;;;;;;;24.40;54.52;94775.50;4976991;28;20035;-88
2023/08/03 05:38:06;;;;;;;17.65;12.15;;;;;;;24.87;54.66;94853.47;4939740;28;20035;-88
2023/08/03 05:40:31;;;;;;;24.92;13.35;;;;;;;24.37;54.32;94759.97;4956277;28;20433;-88
2023/08/03 05:42:57;;;;;;;18.05;13.07;;;;;;;24.99;54.48;94869.50;4939974;28;20043;-89
2023/08/03 05:45:48;;;;;;;22.38;12.77;;;;;;;25.04;54.31;94865.66;4943775;28;20420;-88
2023/08/03 05:48:17;;;;;;;17.65;11.55;;;;;;;25.27;54.38;94898.81;4953862;28;20109;-88
2023/08/03 05:50:48;;;;;;;23.25;12.25;;;;;;;25.42;54.46;94897.78;4987851;28;20582;-88
2023/08/03 05:53:14;;;;;;;21.15;12.48;;;;;;;25.36;53.87;94896.59;4943131;28;20032;-88
2023/08/03 05:55:41;;;;;;;19.65;12.82;;;;;;;25.38;54.34;94905.94;4953504;28;20116;-89
2023/08/03 05:58:10;;;;;;;22.33;12.00;;;;;;;25.43;53.97;94904.00;5045558;28;20048;-88
2023/08/03 06:00:35;;;;;;;21.70;12.93;;;;;;;25.04;54.01;94847.44;4943456;28;20498;-89
2023/08/03 06:03:01;;;;;;;19.67;12.93;;;;;;;25.28;53.63;94867.81;4956341;28;20066;-88
2023/08/03 06:05:34;;;;;;;19.88;11.73;;;;;;;25.67;53.81;94917.84;4986761;28;20075;-89
2023/08/03 06:07:59;;;;;;;22.15;12.38;;;;;;;24.89;52.75;94789.53;4987266;28;20048;-89
2023/08/03 06:10:25;;;;;;;23.48;11.70;;;;;;;25.58;52.58;94897.53;4983638;28;20093;-87
2023/08/03 06:12:50;;;;;;;25.70;11.43;;;;;;;25.51;52.49;94886.63;4951385;28;20042;-88
2023/08/03 06:15:20;;;;;;;24.95;11.40;;;;;;;25.46;52.56;94857.13;4944238;28;20216;-88
2023/08/03 06:17:45;;;;;;;18.65;12.15;;;;;;;25.19;53.20;94838.28;4958234;28;20028;-88
2023/08/03 06:20:14;;;;;;;18.55;12.27;;;;;;;25.40;53.21;94848.56;4947407;29;20181;-87
2023/08/03 06:22:40;;;;;;;20.27;13.15;;;;;;;25.76;52.95;94917.53;4935962;29;20565;-86
2023/08/03 06:25:08;;;;;;;25.25;13.85;;;;;;;25.33;53.12;94824.03;4935542;28;20063;-87
2023/08/03 06:27:34;;;;;;;25.83;13.00;;;;;;;25.83;52.54;94893.13;5025241;28;20487;-86
2023/08/03 06:29:59;;;;;;;27.23;13.05;;;;;;;26.08;52.66;94913.09;4968837;28;20044;-87
2023/08/03 06:32:29;;;;;;;23.13;12.07;;;;;;;25.94;52.75;94909.50;4986097;28;20039;-87
2023/08/03 06:34:56;;;;;;;26.17;13.02;;;;;;;26.01;52.91;94926.66;4935495;28;20043;-87
2023/08/03 06:37:21;;;;;;;21.38;12.32;;;;;;;25.41;52.81;94836.50;4983490;28;20105;-87
2023/08/03 06:39:50;;;;;;;26.17;12.90;;;;;;;26.03;52.49;94913.44;4934488;28;20500;-88
2023/08/03 06:42:16;;;;;;;20.40;12.68;;;;;;;25.63;52.41;94862.69;4966682;28;20097;-87
2023/08/03 06:44:41;;;;;;;22.98;12.85;;;;;;;25.81;52.24;94881.06;5056546;28;20048;-87
2023/08/03 06:47:07;;;;;;;15.65;12.02;;;;;;;25.95;52.23;94914.53;5058272;28;20110;-87
2023/08/03 06:49:32;;;;;;;22.73;12.55;;;;;;;26.11;52.09;94912.31;5004496;28;20036;-87
2023/08/03 06:51:58;;;;;;;18.27;12.80;;;;;;;26.21;52.06;94927.16;4948341;28;20098;-87
2023/08/03 06:54:23;;;;;;;19.33;12.30;;;;;;;25.80;51.95;94844.19;4989598;28;20104;-87
2023/08/03 06:56:49;;;;;;;23.42;12.88;;;;;;;26.32;51.99;94924.53;4975836;28;20437;-86
2023/08/03 06:59:20;;;;;;;27.17;14.10;;;;;;;26.07;51.68;94875.44;4953476;28;20072;-86
2023/08/03 07:01:47;;;;;;;19.90;14.50;;;;;;;26.34;51.70;94909.38;4986107;28;20031;-86
2023/08/03 07:04:12;;;;;;;19.58;13.25;;;;;;;26.16;51.61;94866.94;4938905;28;20039;-86
2023/08/03 07:06:38;;;;;;;23.48;12.82;;;;;;;26.22;51.46;94876.28;4935595;29;20031;-85
2023/08/03 07:09:03;;;;;;;25.65;13.43;;;;;;;26.51;51.31;94900.53;5048483;28;20204;-84
2023/08/03 07:11:30;;;;;;;25.15;13.18;;;;;;;26.18;51.24;94851.00;4932212;28;20502;-86
2023/08/03 07:13:56;;;;;;;20.38;12.07;;;;;;;25.92;51.28;94809.38;4932649;28;20609;-86
2023/08/03 07:16:23;;;;;;;26.23;12.88;;;;;;;26.31;50.80;94836.00;4933383;28;20117;-86
2023/08/03 07:18:48;;;;;;;20.75;10.88;;;;;;;26.29;50.38;94822.78;4937577;28;20050;-87
2023/08/03 07:21:14;;;;;;;17.65;11.40;;;;;;;26.49;50.52;94851.19;4952796;28;20032;-86
2023/08/03 07:23:39;;;;;;;23.33;11.55;;;;;;;26.59;50.50;94855.13;4945484;28;20491;-86
2023/08/03 07:26:14;;;;;;;19.70;10.82;;;;;;;26.35;49.88;94807.66;4933500;28;20062;-88
2023/08/03 07:28:39;;;;;;;20.65;11.48;;;;;;;26.86;49.86;94891.72;4999385;28;20594;-87
2023/08/03 07:31:05;;;;;;;14.90;10.73;;;;;;;26.87;50.00;94884.34;4998696;28;20119;-87
2023/08/03 07:33:30;;;;;;;15.63;11.93;;;;;;;26.48;49.40;94802.63;4988454;28;20027;-86
2023/08/03 07:35:56;;;;;;;19.48;12.00;;;;;;;26.94;49.99;94864.56;5050250;28;20135;-87
2023/08/03 07:38:22;;;;;;;17.50;11.45;;;;;;;27.07;49.47;94872.00;4967455;28;20497;-89
2023/08/03 07:40:47;;;;;;;17.45;10.65;;;;;;;27.11;48.90;94861.91;4954705;28;20051;-87
2023/08/03 07:43:13;;;;;;;19.35;12.40;;;;;;;27.47;48.92;94903.56;4957896;28;20104;-88
2023/08/03 07:45:39;;;;;;;13.10;11.07;;;;;;;27.43;48.77;94907.44;4940767;28;20036;-87
2023/08/03 07:48:05;;;;;;;22.80;11.80;;;;;;;26.34;48.92;94734.63;4947819;28;20051;-87
2023/08/03 07:50:30;;;;;;;27.38;11.45;;;;;;;27.56;48.88;94892.31;5041918;28;20033;-87
2023/08/03 07:52:56;;;;;;;27.08;11.75;;;;;;;27.37;48.94;94858.03;4939964;29;20062;-87
2023/08/03 07:55:21;;;;;;;63.60;14.60;;;;;;;26.79;48.39;94749.47;4951252;28;20019;-87
2023/08/03 07:57:47;;;;;;;117.65;16.38;;;;;;;27.05;48.39;94808.22;4934824;29;20031;-87
2023/08/03 08:00:12;;;;;;;36.45;12.55;;;;;;;27.71;48.83;94902.03;4943418;28;20039;-87
2023/08/03 08:02:38;;;;;;;44.80;13.20;;;;;;;27.28;48.44;94819.53;4954180;28;20042;-87
2023/08/03 08:05:04;;;;;;;27.75;12.80;;;;;;;27.52;48.09;94842.47;4944849;29;20044;-87
2023/08/03 08:07:29;;;;;;;18.58;11.63;;;;;;;27.36;48.10;94798.53;4949457;28;20038;-87
2023/08/03 08:09:55;;;;;;;18.52;12.45;;;;;;;27.71;47.22;94860.41;4943853;28;20096;-88
2023/08/03 08:12:20;;;;;;;21.58;12.23;;;;;;;27.71;47.38;94858.44;4950331;28;20130;-88
2023/08/03 08:14:46;;;;;;;28.00;12.82;;;;;;;27.45;47.99;94826.94;4974764;28;20046;-88
2023/08/03 08:17:12;;;;;;;18.38;12.18;;;;;;;27.71;47.73;94839.38;4937424;28;20098;-87
2023/08/03 08:19:38;;;;;;;36.97;12.38;;;;;;;26.73;47.31;94678.34;4953770;28;20031;-88
2023/08/03 08:22:06;;;;;;;18.88;12.98;;;;;;;27.01;47.12;94710.25;4937547;28;20043;-88
2023/08/03 08:24:32;;;;;;;16.65;11.32;;;;;;;27.67;47.44;94813.31;4986226;28;20485;-87
2023/08/03 08:26:57;;;;;;;28.85;13.15;;;;;;;27.99;47.37;94847.53;4950659;29;20171;-87
2023/08/03 08:29:24;;;;;;;20.33;12.05;;;;;;;28.08;47.66;94847.09;4936716;28;20407;-86
2023/08/03 08:31:49;;;;;;;17.67;12.52;;;;;;;28.13;46.99;94846.72;4936872;29;20052;-86
2023/08/03 08:34:15;;;;;;;29.20;13.10;;;;;;;28.37;46.78;94875.13;4936514;28;20047;-87
2023/08/03 08:36:40;;;;;;;35.08;13.02;;;;;;;28.16;46.49;94835.03;4943805;28;20032;-88
2023/08/03 08:39:06;;;;;;;17.42;11.68;;;;;;;28.44;45.91;94869.63;4938620;29;20099;-87
2023/08/03 08:41:31;;;;;;;16.95;11.55;;;;;;;28.38;46.54;94852.09;4950248;28;20024;-87
2023/08/03 08:43:57;;;;;;;30.20;12.07;;;;;;;27.61;46.37;94728.50;4980583;28;20527;-86
2023/08/03 08:46:22;;;;;;;14.85;10.10;;;;;;;28.49;45.23;94854.81;4960670;28;20037;-87
2023/08/03 08:48:48;;;;;;;23.88;11.05;;;;;;;28.57;45.58;94846.19;4977160;28;20107;-87
2023/08/03 08:51:17;;;;;;;18.20;11.38;;;;;;;27.78;45.13;94719.47;4976043;28;20049;-86
2023/08/03 08:53:43;;;;;;;15.55;11.30;;;;;;;28.28;45.61;94782.81;4956029;28;20035;-87
2023/08/03 08:56:08;;;;;;;16.33;11.25;;;;;;;28.65;45.31;94814.19;4953775;29;20036;-86
2023/08/03 08:58:33;;;;;;;22.88;12.05;;;;;;;28.66;45.58;94823.94;4938024;28;20031;-86
2023/08/03 09:01:04;;;;;;;20.23;12.13;;;;;;;28.91;45.08;94856.59;4967360;28;20542;-86
2023/08/03 09:03:45;;;;;;;16.73;11.53;;;;;;;28.16;45.33;94761.44;5035126;28;20130;-86
2023/08/03 09:06:11;;;;;;;16.77;12.13;;;;;;;28.35;45.55;94801.09;4986898;28;20102;-87
2023/08/03 09:08:58;;;;;;;19.33;11.10;;;;;;;28.36;45.63;94799.94;4955799;28;20054;-87
2023/08/03 09:11:41;;;;;;;18.23;12.32;;;;;;;28.60;45.25;94809.16;4955120;28;20031;-87
2023/08/03 09:14:09;;;;;;;22.83;12.27;;;;;;;28.97;45.10;94850.31;4957078;28;20413;-86
2023/08/03 09:16:35;;;;;;;17.25;11.38;;;;;;;28.95;45.62;94840.97;4992318;28;20124;-86
2023/08/03 09:19:00;;;;;;;16.98;11.52;;;;;;;28.24;45.10;94708.41;4961337;28;20023;-86
2023/08/03 09:21:26;;;;;;;15.35;11.57;;;;;;;29.11;44.63;94857.66;4960063;28;20105;-86
2023/08/03 09:23:52;;;;;;;18.48;12.35;;;;;;;28.57;44.62;94771.75;4961356;28;20038;-86
2023/08/03 09:26:24;;;;;;;19.00;11.88;;;;;;;28.55;44.71;94750.34;4993345;28;20130;-86
2023/08/03 09:28:50;;;;;;;17.88;12.57;;;;;;;28.19;44.81;94683.53;4961109;28;20043;-86
2023/08/03 09:31:25;;;;;;;16.88;12.00;;;;;;;29.00;44.50;94807.78;4960088;28;20087;-86
2023/08/03 09:33:55;;;;;;;17.92;12.05;;;;;;;29.31;45.00;94825.91;4948755;28;20063;-86
2023/08/03 09:36:21;;;;;;;16.55;11.98;;;;;;;29.15;44.40;94788.16;4941309;28;20090;-86
2023/08/03 09:38:46;;;;;;;17.20;12.65;;;;;;;29.55;44.43;94824.19;4958019;28;20031;-86
2023/08/03 09:41:12;;;;;;;21.15;12.50;;;;;;;29.05;44.25;94728.97;4961828;28;20050;-86
2023/08/03 09:43:40;;;;;;;15.02;12.02;;;;;;;29.40;43.78;94768.13;4942237;28;20047;-87
2023/08/03 09:46:06;;;;;;;16.08;12.40;;;;;;;29.89;43.99;94821.53;4961603;28;20047;-86
2023/08/03 09:48:32;;;;;;;15.45;11.85;;;;;;;29.71;43.38;94779.94;4962190;28;20045;-86
2023/08/03 09:50:58;;;;;;;16.63;11.80;;;;;;;29.79;43.59;94790.38;4991967;28;20023;-86
2023/08/03 09:53:28;;;;;;;17.90;13.35;;;;;;;28.95;43.60;94650.69;4993951;28;20046;-86
2023/08/03 09:56:00;;;;;;;16.98;12.55;;;;;;;29.87;43.42;94747.34;4987860;28;20104;-86
2023/08/03 09:58:33;;;;;;;13.15;11.75;;;;;;;30.79;41.54;94792.00;4959791;28;20035;-86
2023/08/03 10:01:03;;;;;;;14.30;11.80;;;;;;;31.17;40.68;94718.69;4983545;28;20027;-86
2023/08/03 10:03:31;;;;;;;14.07;11.53;;;;;;;31.95;38.63;94722.81;4991459;28;20417;-86
2023/08/03 10:06:09;;;;;;;14.43;10.73;;;;;;;32.88;36.93;94749.91;4983929;28;20031;-87
2023/08/03 10:08:51;;;;;;;16.45;11.05;;;;;;;34.14;35.69;94804.16;4968192;28;20035;-88
2023/08/03 10:11:20;;;;;;;15.27;11.18;;;;;;;34.99;34.68;94808.06;4984437;28;20031;-88
2023/08/03 10:13:47;;;;;;;21.13;11.40;;;;;;;35.12;33.48;94780.50;4983337;28;20045;-86
2023/08/03 10:16:17;;;;;;;14.52;10.82;;;;;;;35.78;32.54;94773.28;4984069;28;20118;-90
2023/08/03 10:18:44;;;;;;;33.13;10.95;;;;;;;35.65;31.58;94675.97;4984692;28;20035;-87
2023/08/03 10:21:10;;;;;;;24.38;11.07;;;;;;;35.71;31.30;94614.28;4943436;28;20598;-89
2023/08/03 10:23:38;;;;;;;20.73;10.68;;;;;;;36.49;30.48;94665.84;4946426;28;20039;-89
2023/08/03 10:26:06;;;;;;;16.42;10.57;;;;;;;37.71;29.71;94771.19;4952632;28;20047;-88
2023/08/03 10:28:40;;;;;;;11.90;8.88;;;;;;;38.00;28.99;94768.75;4952589;28;20035;-88
2023/08/03 10:31:18;;;;;;;68.07;13.00;;;;;;;37.21;29.08;94634.97;4953213;28;20035;-91
2023/08/03 10:33:50;;;;;;;34.17;10.02;;;;;;;38.15;28.79;94753.09;4990978;28;20058;-90
2023/08/03 10:36:38;;;;;;;22.67;10.52;;;;;;;38.19;28.85;94747.41;4970830;28;20043;-90
2023/08/03 10:39:09;;;;;;;469.75;40.08;;;;;;;38.20;28.50;94758.03;5015165;28;20522;-90
2023/08/03 10:41:36;;;;;;;;;;;;;;;38.36;28.21;94754.16;4950544;28;20047;-90
2023/08/03 10:44:05;;;;;;;13.98;8.73;;;;;;;38.59;27.48;94750.00;4992447;28;19926;-89
2023/08/03 10:46:40;;;;;;;14.63;9.27;;;;;;;38.58;27.55;94748.47;4961627;28;20416;-90
2023/08/03 10:49:18;;;;;;;14.30;9.18;;;;;;;38.79;27.33;94758.56;4957627;28;20031;-90
2023/08/03 10:51:51;;;;;;;22.60;10.27;;;;;;;37.98;28.13;94685.44;4956070;28;20039;-89
2023/08/03 10:54:19;;;;;;;26.83;9.32;;;;;;;37.48;28.23;94632.22;4939133;28;20042;-89
2023/08/03 10:57:05;;;;;;;17.70;9.60;;;;;;;38.20;28.03;94748.94;4944255;28;20043;-89
2023/08/03 10:59:44;;;;;;;46.63;10.70;;;;;;;38.10;28.25;94750.19;4939520;28;20035;-90
2023/08/03 11:02:22;;;;;;;33.17;10.75;;;;;;;38.51;27.20;94748.78;4947243;28;20038;-88
2023/08/03 11:04:52;;;;;;;18.20;8.52;;;;;;;38.27;27.03;94675.88;4957335;28;20039;-89
2023/08/03 11:07:23;;;;;;;11.75;8.45;;;;;;;38.59;26.54;94747.22;4942637;28;20040;-88
2023/08/03 11:09:51;;;;;;;25.73;9.38;;;;;;;38.49;27.02;94688.28;4942063;28;20023;-90
2023/08/03 11:12:17;;;;;;;26.83;8.98;;;;;;;38.55;26.55;94743.84;4957094;28;20488;-89
2023/08/03 11:14:44;;;;;;;15.02;8.32;;;;;;;37.76;26.72;94601.81;4938990;28;20081;-88
2023/08/03 11:17:12;;;;;;;14.93;9.02;;;;;;;37.77;26.38;94561.81;4954192;28;20472;-88